Time;durP1;ratioP1;P1;durP2;ratioP2;P2;SDS_P1;SDS_P2;PMS_P1;PMS_P2;Temp;Humidity;BMP_temperature;BMP_pressure;BME280_temperature;BME280_humidity;BME280_pressure;Samples;Min_cycle;Max_cycle;Signal;HPM_P1;HPM_P2
2021/06/27 00:01:20;;;;;;;3.20;3.00;;;;;;;22.34;100.00;97558.31;5043190;28;20304;-63
2021/06/27 00:03:47;;;;;;;2.80;2.60;;;;;;;22.33;100.00;97555.69;5047596;28;20247;-65
2021/06/27 00:06:14;;;;;;;2.90;2.70;;;;;;;22.27;100.00;97537.63;5054472;28;20538;-65
2021/06/27 00:08:41;;;;;;;3.07;2.87;;;;;;;22.31;100.00;97553.09;5052910;28;20705;-64
2021/06/27 00:11:08;;;;;;;2.80;2.60;;;;;;;22.30;100.00;97547.94;5054334;28;20309;-65
2021/06/27 00:13:35;;;;;;;2.80;2.60;;;;;;;22.31;100.00;97549.66;5053291;28;20228;-65
2021/06/27 00:16:02;;;;;;;2.70;2.50;;;;;;;22.30;100.00;97548.81;5053623;28;20228;-65
2021/06/27 00:18:29;;;;;;;2.80;2.60;;;;;;;22.31;100.00;97547.09;5053811;28;20574;-65
2021/06/27 00:20:57;;;;;;;2.93;2.73;;;;;;;22.30;100.00;97545.38;5053866;28;20247;-65
2021/06/27 00:23:25;;;;;;;2.90;2.70;;;;;;;22.29;100.00;97544.50;5054028;28;20248;-66
2021/06/27 00:25:52;;;;;;;2.80;2.60;;;;;;;22.02;100.00;97501.97;5038679;28;20634;-66
2021/06/27 00:28:20;;;;;;;2.90;2.70;;;;;;;22.29;100.00;97547.06;5032714;28;20633;-65
2021/06/27 00:30:47;;;;;;;2.97;2.77;;;;;;;22.30;100.00;97547.94;5051743;28;20232;-65
2021/06/27 00:33:14;;;;;;;2.83;2.63;;;;;;;22.29;100.00;97549.63;5053280;28;20262;-66
2021/06/27 00:35:41;;;;;;;2.80;2.60;;;;;;;22.30;100.00;97545.38;5035061;28;20292;-65
2021/06/27 00:38:07;;;;;;;2.70;2.50;;;;;;;22.30;100.00;97545.38;5033126;28;20293;-65
2021/06/27 00:40:35;;;;;;;3.07;2.87;;;;;;;22.30;100.00;97540.25;5033295;28;20304;-65
2021/06/27 00:43:03;;;;;;;2.77;2.57;;;;;;;22.31;100.00;97544.53;5035152;28;20698;-62
2021/06/27 00:45:30;;;;;;;2.87;2.67;;;;;;;22.31;100.00;97547.09;5032186;28;20236;-65
2021/06/27 00:47:59;;;;;;;3.20;2.90;;;;;;;22.31;100.00;97542.84;5032243;28;20233;-67
2021/06/27 00:50:37;;;;;;;2.80;2.60;;;;;;;22.30;100.00;97541.13;5028053;28;20228;-64
2021/06/27 00:53:05;;;;;;;2.70;2.50;;;;;;;22.31;100.00;97536.84;5032061;28;20245;-65
2021/06/27 00:55:31;;;;;;;3.80;2.63;;;;;;;22.30;100.00;97533.44;5032910;28;20576;-66
2021/06/27 00:58:13;;;;;;;3.10;2.90;;;;;;;22.30;100.00;97538.56;5031325;28;20229;-65
2021/06/27 01:00:40;;;;;;;3.00;2.80;;;;;;;22.28;100.00;97537.66;5022067;28;20221;-65
2021/06/27 01:03:07;;;;;;;2.97;2.77;;;;;;;22.28;100.00;97547.03;5031726;28;20228;-65
2021/06/27 01:05:36;;;;;;;3.10;2.90;;;;;;;22.28;100.00;97544.47;5031004;28;20237;-66
2021/06/27 01:08:02;;;;;;;2.93;2.73;;;;;;;22.27;100.00;97543.63;5025000;28;20225;-61
2021/06/27 01:10:29;;;;;;;3.23;3.03;;;;;;;22.27;100.00;97546.19;5025564;28;20221;-64
2021/06/27 01:12:57;;;;;;;3.00;2.80;;;;;;;22.27;100.00;97545.28;5021986;28;20291;-65
2021/06/27 01:15:23;;;;;;;3.00;2.80;;;;;;;22.26;100.00;97544.41;5026219;28;20850;-63
2021/06/27 01:17:52;;;;;;;3.00;2.80;;;;;;;22.26;100.00;97533.34;5025125;28;20289;-64
2021/06/27 01:20:21;;;;;;;3.13;2.93;;;;;;;22.26;100.00;97541.00;5027329;28;20273;-65
2021/06/27 01:22:48;;;;;;;3.10;2.90;;;;;;;22.22;100.00;97526.38;5156453;22;20248;-67
2021/06/27 01:25:17;;;;;;;3.00;2.80;;;;;;;22.16;100.00;97524.53;5043675;28;20282;-64
2021/06/27 01:27:43;;;;;;;2.70;2.50;;;;;;;22.16;100.00;97519.41;5032286;28;20251;-67
2021/06/27 01:30:10;;;;;;;2.67;2.47;;;;;;;22.26;100.00;97536.72;5038791;28;20279;-67
2021/06/27 01:32:42;;;;;;;3.07;2.77;;;;;;;22.21;100.00;97533.22;5029769;28;20220;-66
2021/06/27 01:35:13;;;;;;;2.87;2.67;;;;;;;22.12;100.00;97516.72;5018570;28;20648;-66
2021/06/27 01:37:43;;;;;;;3.17;2.97;;;;;;;22.11;100.00;97512.44;5047873;28;20296;-67
2021/06/27 01:40:11;;;;;;;3.07;2.87;;;;;;;22.25;100.00;97537.56;5028504;28;20221;-66
2021/06/27 01:42:38;;;;;;;3.07;2.87;;;;;;;22.18;100.00;97522.00;5045114;28;20297;-68
2021/06/27 01:45:10;;;;;;;3.30;3.00;;;;;;;22.27;100.00;97529.94;5018958;28;20235;-67
2021/06/27 01:47:37;;;;;;;3.13;2.93;;;;;;;22.23;100.00;97528.97;5060743;28;20821;-66
2021/06/27 01:50:05;;;;;;;3.27;3.07;;;;;;;22.10;100.00;97506.44;5063764;28;20220;-66
2021/06/27 01:52:32;;;;;;;3.70;3.00;;;;;;;22.07;100.00;97508.06;5011158;28;20264;-66
2021/06/27 01:54:59;;;;;;;3.17;2.97;;;;;;;22.21;100.00;97527.22;5045866;28;20305;-66
2021/06/27 01:57:25;;;;;;;3.00;2.80;;;;;;;22.20;100.00;97528.91;5044785;28;20319;-65
2021/06/27 01:59:52;;;;;;;3.00;2.80;;;;;;;22.24;100.00;97540.97;5062617;28;20248;-67
2021/06/27 02:02:18;;;;;;;3.37;3.17;;;;;;;22.14;100.00;97521.06;5064940;28;20612;-66
2021/06/27 02:04:46;;;;;;;3.30;3.10;;;;;;;21.86;100.00;97480.19;5066895;28;20284;-68
2021/06/27 02:07:13;;;;;;;2.87;2.67;;;;;;;22.14;100.00;97522.75;5035049;28;20227;-68
2021/06/27 02:09:43;;;;;;;3.00;2.80;;;;;;;22.24;100.00;97534.97;5046310;28;20205;-66
2021/06/27 02:12:10;;;;;;;3.00;2.80;;;;;;;22.23;100.00;97541.78;5047918;28;20578;-66
2021/06/27 02:14:40;;;;;;;3.30;3.10;;;;;;;21.94;100.00;97488.09;5053201;28;20287;-65
2021/06/27 02:17:08;;;;;;;2.73;2.53;;;;;;;22.23;100.00;97530.69;5030896;28;20200;-65
2021/06/27 02:19:34;;;;;;;3.30;3.10;;;;;;;21.90;100.00;97481.16;5053818;28;20270;-66
2021/06/27 02:22:01;;;;;;;3.20;3.00;;;;;;;22.19;100.00;97526.28;5053671;28;20715;-67
2021/06/27 02:24:29;;;;;;;2.90;2.70;;;;;;;22.18;100.00;97528.00;5050202;28;20643;-67
2021/06/27 02:26:55;;;;;;;3.07;2.87;;;;;;;22.14;100.00;97523.63;5052377;28;20224;-66
2021/06/27 02:29:22;;;;;;;3.10;2.90;;;;;;;22.24;100.00;97529.84;5053469;28;20223;-67
2021/06/27 02:31:51;;;;;;;2.87;2.67;;;;;;;22.21;100.00;97535.78;5053537;28;20218;-67
2021/06/27 02:34:18;;;;;;;3.30;3.10;;;;;;;22.24;100.00;97543.53;5070993;28;20201;-67
2021/06/27 02:36:46;;;;;;;3.10;2.90;;;;;;;22.26;100.00;97533.34;5069832;28;20224;-67
2021/06/27 02:39:12;;;;;;;3.00;2.80;;;;;;;22.16;100.00;97518.53;5057195;28;20255;-67
2021/06/27 02:41:39;;;;;;;3.07;2.83;;;;;;;22.21;100.00;97533.22;5036883;28;20643;-67
2021/06/27 02:44:06;;;;;;;2.80;2.60;;;;;;;22.16;100.00;97524.53;5051288;28;20701;-68
2021/06/27 02:46:32;;;;;;;2.83;2.63;;;;;;;22.14;100.00;97526.16;5033527;28;20781;-67
2021/06/27 02:48:59;;;;;;;3.20;3.00;;;;;;;22.18;100.00;97535.69;5053619;28;20245;-67
2021/06/27 02:51:26;;;;;;;3.20;3.00;;;;;;;22.13;100.00;97536.38;5066952;28;20228;-66
2021/06/27 02:53:52;;;;;;;3.37;3.07;;;;;;;22.14;100.00;97533.84;5032996;28;20243;-67
2021/06/27 02:56:19;;;;;;;3.30;3.00;;;;;;;22.14;100.00;97535.56;5053040;28;20228;-67
2021/06/27 02:58:47;;;;;;;3.23;3.03;;;;;;;22.23;100.00;97552.00;5047215;28;20227;-68
2021/06/27 03:01:15;;;;;;;2.83;2.63;;;;;;;22.22;100.00;97552.84;5036281;28;20674;-67
2021/06/27 03:03:41;;;;;;;3.60;3.30;;;;;;;;;;5052001;28;20216;-67
2021/06/27 03:06:08;;;;;;;3.20;3.00;;;;;;;22.21;100.00;97557.94;5052676;28;20673;-65
2021/06/27 03:08:36;;;;;;;3.17;2.97;;;;;;;22.09;100.00;97537.13;5070503;28;20197;-67
2021/06/27 03:11:03;;;;;;;3.20;3.00;;;;;;;22.13;100.00;97544.06;5052764;28;20330;-65
2021/06/27 03:13:32;;;;;;;3.17;2.97;;;;;;;22.23;100.00;97553.72;5070218;28;20711;-67
2021/06/27 03:15:58;;;;;;;3.10;2.90;;;;;;;22.14;100.00;97530.44;5033021;28;20264;-67
2021/06/27 03:18:25;;;;;;;3.13;2.93;;;;;;;22.22;100.00;97544.28;5052604;28;20547;-64
2021/06/27 03:20:52;;;;;;;3.10;2.90;;;;;;;22.22;100.00;97542.63;5052126;28;20314;-67
2021/06/27 03:23:18;;;;;;;3.20;3.00;;;;;;;22.20;100.00;97539.13;5061464;28;20560;-67
2021/06/27 03:25:45;;;;;;;3.20;3.00;;;;;;;22.06;100.00;97511.44;5051366;28;20200;-65
2021/06/27 03:28:11;;;;;;;3.10;2.90;;;;;;;22.13;100.00;97521.00;5035547;28;20227;-66
2021/06/27 03:30:38;;;;;;;3.20;3.00;;;;;;;21.05;100.00;97334.72;5050962;28;20275;-66
2021/06/27 03:33:06;;;;;;;3.20;3.00;;;;;;;21.29;100.00;97372.00;5047389;28;20227;-67
2021/06/27 03:35:32;;;;;;;3.20;3.00;;;;;;;21.93;100.00;97488.91;5050989;28;20195;-65
2021/06/27 03:38:15;;;;;;;3.07;2.87;;;;;;;22.24;100.00;97540.09;5035486;28;20311;-66
2021/06/27 03:40:43;;;;;;;3.50;3.13;;;;;;;22.22;100.00;97537.50;5070175;28;20251;-66
2021/06/27 03:43:10;;;;;;;2.87;2.67;;;;;;;22.22;100.00;97536.63;5052429;28;20223;-67
2021/06/27 03:45:38;;;;;;;3.20;3.00;;;;;;;22.16;100.00;97529.66;5052559;28;20239;-65
2021/06/27 03:48:07;;;;;;;3.60;3.30;;;;;;;22.18;100.00;97529.69;5046749;28;20209;-67
2021/06/27 03:50:34;;;;;;;3.40;3.20;;;;;;;22.21;100.00;97533.22;5032592;28;20637;-67
2021/06/27 03:53:01;;;;;;;3.30;3.10;;;;;;;22.21;100.00;97524.66;5052089;28;20231;-66
2021/06/27 03:55:29;;;;;;;3.07;2.87;;;;;;;22.22;100.00;97534.06;5068098;28;20284;-66
2021/06/27 03:57:56;;;;;;;3.20;3.00;;;;;;;22.15;100.00;97519.38;5069716;28;20657;-67
2021/06/27 04:00:22;;;;;;;3.13;2.93;;;;;;;22.20;100.00;97521.22;5048643;28;20762;-65
2021/06/27 04:02:49;;;;;;;3.03;2.80;;;;;;;22.21;100.00;97514.41;5050407;28;20570;-66
2021/06/27 04:05:15;;;;;;;3.27;2.80;;;;;;;22.12;100.00;97483.47;5069291;28;20263;-67
2021/06/27 04:07:42;;;;;;;3.07;2.87;;;;;;;22.22;100.00;97498.22;5051067;28;20279;-67
2021/06/27 04:10:09;;;;;;;3.20;3.00;;;;;;;22.15;100.00;97484.41;5051568;28;20259;-66
2021/06/27 04:12:36;;;;;;;3.17;2.97;;;;;;;21.73;100.00;97415.84;5069082;28;20307;-65
2021/06/27 04:15:06;;;;;;;3.00;2.80;;;;;;;22.22;100.00;97495.66;5051746;28;20200;-67
2021/06/27 04:17:33;;;;;;;3.40;3.10;;;;;;;22.11;100.00;97477.47;5051617;28;20291;-67
2021/06/27 04:20:00;;;;;;;2.87;2.67;;;;;;;22.18;100.00;97492.16;5035937;28;20220;-67
2021/06/27 04:22:26;;;;;;;3.10;2.90;;;;;;;21.99;100.00;97471.19;5030441;28;20255;-66
2021/06/27 04:24:53;;;;;;;3.17;2.97;;;;;;;22.12;100.00;97496.25;5051403;28;20715;-66
2021/06/27 04:27:19;;;;;;;3.37;3.17;;;;;;;22.23;100.00;97515.34;5069194;28;20193;-67
2021/06/27 04:29:46;;;;;;;3.37;3.10;;;;;;;22.22;100.00;97516.13;5051637;28;20251;-68
2021/06/27 04:32:13;;;;;;;3.20;3.00;;;;;;;22.22;100.00;97516.13;5069347;28;20254;-67
2021/06/27 04:34:39;;;;;;;4.13;3.10;;;;;;;22.13;100.00;97510.78;5068953;28;20201;-67
2021/06/27 04:37:06;;;;;;;3.47;3.17;;;;;;;22.21;100.00;97522.09;5051864;28;20283;-67
2021/06/27 04:39:33;;;;;;;3.30;3.10;;;;;;;22.11;100.00;97507.34;5073666;28;20242;-65
2021/06/27 04:42:00;;;;;;;4.07;2.90;;;;;;;22.21;100.00;97514.41;5032112;28;20240;-67
2021/06/27 04:44:26;;;;;;;4.47;3.17;;;;;;;22.19;100.00;97516.94;5066645;28;20239;-68
2021/06/27 04:46:53;;;;;;;2.97;2.77;;;;;;;21.57;100.00;97409.44;5071027;28;20219;-67
2021/06/27 04:49:20;;;;;;;3.43;3.13;;;;;;;22.09;100.00;97491.94;5036903;28;20240;-66
2021/06/27 04:51:46;;;;;;;3.37;3.17;;;;;;;22.04;100.00;97488.38;5054708;28;20243;-64
2021/06/27 04:54:13;;;;;;;3.07;2.87;;;;;;;22.09;100.00;97491.06;5055095;28;20287;-67
2021/06/27 04:56:39;;;;;;;3.20;3.00;;;;;;;22.19;100.00;97516.94;5070939;28;20662;-67
2021/06/27 04:59:06;;;;;;;3.27;3.07;;;;;;;21.91;100.00;97464.97;5073131;28;20286;-67
2021/06/27 05:01:33;;;;;;;3.57;3.27;;;;;;;22.11;100.00;97491.97;5038248;28;20219;-67
2021/06/27 05:03:59;;;;;;;3.20;3.00;;;;;;;22.20;100.00;97505.00;5071984;28;20262;-66
2021/06/27 05:06:26;;;;;;;3.43;3.00;;;;;;;21.89;100.00;97441.91;5038072;28;20291;-67
2021/06/27 05:08:53;;;;;;;3.20;3.00;;;;;;;22.14;100.00;97492.06;5054901;28;20204;-66
2021/06/27 05:11:19;;;;;;;3.23;3.03;;;;;;;22.19;100.00;97493.03;5072769;28;20224;-65
2021/06/27 05:13:46;;;;;;;3.30;3.10;;;;;;;21.83;100.00;97420.41;5071199;28;20251;-67
2021/06/27 05:16:13;;;;;;;3.03;2.83;;;;;;;22.21;100.00;97478.56;5037696;28;20288;-66
2021/06/27 05:18:40;;;;;;;4.40;3.27;;;;;;;22.20;100.00;97477.69;5052086;28;20201;-64
2021/06/27 05:21:06;;;;;;;3.27;3.03;;;;;;;21.90;100.00;97427.44;5068240;28;20304;-67
2021/06/27 05:23:33;;;;;;;3.30;3.10;;;;;;;22.21;100.00;97476.88;5054559;28;20317;-66
2021/06/27 05:25:59;;;;;;;3.40;3.10;;;;;;;22.22;100.00;97480.28;5070109;28;20200;-67
2021/06/27 05:28:27;;;;;;;3.30;3.10;;;;;;;22.22;100.00;97477.75;5050437;28;20786;-67
2021/06/27 05:30:54;;;;;;;3.77;3.20;;;;;;;22.22;100.00;97470.06;5070668;28;20196;-66
2021/06/27 05:33:21;;;;;;;3.87;3.53;;;;;;;22.22;100.00;97476.06;5071921;28;20223;-67
2021/06/27 05:35:47;;;;;;;3.20;3.00;;;;;;;22.23;100.00;97477.78;5071882;28;20238;-64
2021/06/27 05:38:14;;;;;;;3.27;3.07;;;;;;;22.22;100.00;97478.63;5054932;28;20283;-68
2021/06/27 05:40:41;;;;;;;3.30;3.10;;;;;;;22.24;100.00;97478.66;5069035;28;20338;-67
2021/06/27 05:43:07;;;;;;;3.60;3.30;;;;;;;22.24;100.00;97468.41;5053733;28;20258;-65
2021/06/27 05:45:34;;;;;;;3.37;3.07;;;;;;;22.13;100.00;97451.91;5054784;28;20224;-64
2021/06/27 05:48:01;;;;;;;3.43;3.13;;;;;;;22.24;100.00;97473.53;5038422;28;20275;-65
2021/06/27 05:50:27;;;;;;;3.50;3.30;;;;;;;22.23;100.00;97470.09;5068778;28;20232;-66
2021/06/27 05:52:54;;;;;;;3.60;2.97;;;;;;;22.25;100.00;97478.69;5036649;28;20251;-65
2021/06/27 05:55:21;;;;;;;3.33;3.13;;;;;;;22.12;100.00;97453.63;5036349;28;20430;-65
2021/06/27 05:57:47;;;;;;;3.40;3.10;;;;;;;22.27;100.00;97483.84;5072317;28;20236;-66
2021/06/27 06:00:14;;;;;;;3.37;3.17;;;;;;;22.26;100.00;97482.97;5053263;28;20247;-66
2021/06/27 06:02:41;;;;;;;3.50;3.30;;;;;;;22.26;100.00;97490.66;5048969;28;20251;-65
2021/06/27 06:05:08;;;;;;;3.87;3.57;;;;;;;22.26;100.00;97484.69;5044672;28;20270;-66
2021/06/27 06:07:34;;;;;;;3.57;3.23;;;;;;;21.88;100.00;97414.59;5064566;28;20247;-66
2021/06/27 06:10:01;;;;;;;3.90;3.60;;;;;;;22.25;100.00;97496.63;5036213;28;20223;-66
2021/06/27 06:12:28;;;;;;;3.50;3.20;;;;;;;22.25;100.00;97503.41;5048726;28;20271;-66
2021/06/27 06:14:54;;;;;;;3.53;3.27;;;;;;;22.06;100.00;97462.81;5071243;28;20208;-66
2021/06/27 06:17:21;;;;;;;3.90;3.60;;;;;;;22.24;100.00;97501.69;5039477;28;20259;-65
2021/06/27 06:19:51;;;;;;;4.93;3.93;;;;;;;22.23;100.00;97495.69;5072352;28;20204;-66
2021/06/27 06:22:19;;;;;;;4.00;3.70;;;;;;;22.13;100.00;97483.50;5072136;28;20252;-66
2021/06/27 06:24:47;;;;;;;3.87;3.57;;;;;;;22.23;100.00;97497.41;5036551;28;20220;-65
2021/06/27 06:27:13;;;;;;;3.50;3.20;;;;;;;22.16;100.00;97482.69;5037534;28;20232;-65
2021/06/27 06:29:40;;;;;;;6.37;3.40;;;;;;;22.11;100.00;97481.72;5049214;28;20262;-66
2021/06/27 06:32:07;;;;;;;4.23;3.87;;;;;;;22.17;100.00;97499.81;5015342;28;20296;-66
2021/06/27 06:34:34;;;;;;;3.60;3.30;;;;;;;22.22;100.00;97511.00;5068880;28;20618;-66
2021/06/27 06:37:00;;;;;;;4.33;3.90;;;;;;;22.20;100.00;97510.97;5069000;28;20224;-66
2021/06/27 06:39:27;;;;;;;3.90;3.60;;;;;;;22.21;100.00;97510.16;5052278;28;20279;-66
2021/06/27 06:41:53;;;;;;;3.53;3.30;;;;;;;21.85;100.00;97458.00;5033604;28;20249;-67
2021/06/27 06:44:20;;;;;;;3.80;3.50;;;;;;;22.12;100.00;97496.25;5046312;28;20201;-65
2021/06/27 06:46:47;;;;;;;3.40;3.10;;;;;;;22.16;100.00;97506.63;5046232;28;20246;-66
2021/06/27 06:49:13;;;;;;;3.53;3.33;;;;;;;22.23;100.00;97510.22;5037474;28;20224;-66
2021/06/27 06:51:40;;;;;;;3.93;3.30;;;;;;;22.23;100.00;97505.94;5068353;28;20230;-67
2021/06/27 06:54:06;;;;;;;4.40;3.53;;;;;;;22.23;100.00;97512.78;5063057;28;20227;-66
2021/06/27 06:56:33;;;;;;;4.43;3.73;;;;;;;22.16;100.00;97511.72;5051477;28;20196;-66
2021/06/27 06:59:00;;;;;;;3.90;3.60;;;;;;;22.24;100.00;97529.84;5070344;28;20219;-66
2021/06/27 07:01:27;;;;;;;3.87;3.57;;;;;;;22.24;100.00;97532.41;5064216;28;20315;-66
2021/06/27 07:03:53;;;;;;;3.73;3.43;;;;;;;22.14;100.00;97510.81;5035205;28;20225;-67
2021/06/27 07:06:22;;;;;;;3.70;3.40;;;;;;;22.25;100.00;97531.56;5065481;28;20197;-66
2021/06/27 07:08:50;;;;;;;3.90;3.60;;;;;;;22.24;100.00;97528.16;5070293;28;20213;-67
2021/06/27 07:11:20;;;;;;;3.87;3.57;;;;;;;21.78;100.00;97445.84;5022054;28;20200;-66
2021/06/27 07:13:46;;;;;;;4.10;3.80;;;;;;;21.99;100.00;97483.97;5052770;28;20307;-67
2021/06/27 07:16:13;;;;;;;3.90;3.60;;;;;;;22.25;100.00;97527.34;5035272;28;20196;-67
2021/06/27 07:18:40;;;;;;;4.13;3.77;;;;;;;22.26;100.00;97525.66;5049682;28;20203;-67
2021/06/27 07:21:06;;;;;;;4.10;3.80;;;;;;;22.20;100.00;97517.81;5070427;28;20809;-65
2021/06/27 07:23:33;;;;;;;4.00;3.70;;;;;;;21.87;100.00;97458.06;5083258;22;20321;-63
2021/06/27 07:26:00;;;;;;;4.10;3.80;;;;;;;22.02;100.00;97479.78;5046599;28;20224;-64
2021/06/27 07:28:26;;;;;;;4.40;3.70;;;;;;;22.25;100.00;97511.97;5021822;28;20932;-64
2021/06/27 07:30:53;;;;;;;4.20;3.80;;;;;;;22.26;100.00;97513.69;5043288;28;20280;-65
2021/06/27 07:33:20;;;;;;;4.23;3.93;;;;;;;22.26;100.00;97508.56;5041672;28;20240;-63
2021/06/27 07:35:46;;;;;;;4.10;3.77;;;;;;;22.25;100.00;97499.19;5036450;28;20885;-65
2021/06/27 07:38:13;;;;;;;4.13;3.83;;;;;;;22.24;100.00;97492.34;5039971;28;20279;-64
2021/06/27 07:40:40;;;;;;;4.00;3.70;;;;;;;22.25;100.00;97495.72;5036106;28;20316;-65
2021/06/27 07:43:07;;;;;;;5.70;3.90;;;;;;;22.24;100.00;97492.34;5040818;28;20283;-64
2021/06/27 07:45:33;;;;;;;4.00;3.70;;;;;;;22.23;100.00;97482.06;5038539;28;20236;-64
2021/06/27 07:48:00;;;;;;;4.40;4.00;;;;;;;22.23;100.00;97482.06;5043909;28;20201;-65
2021/06/27 07:50:27;;;;;;;4.40;4.00;;;;;;;22.22;100.00;97481.16;5039914;28;20229;-65
2021/06/27 07:52:53;;;;;;;5.67;3.67;;;;;;;22.21;100.00;97484.56;5036310;28;20308;-63
2021/06/27 07:55:20;;;;;;;4.20;3.90;;;;;;;22.22;100.00;97491.41;5036516;28;20231;-65
2021/06/27 07:57:47;;;;;;;4.10;3.80;;;;;;;22.21;100.00;97484.56;5034548;28;20758;-65
2021/06/27 08:00:14;;;;;;;5.13;3.80;;;;;;;22.21;100.00;97478.56;5020096;28;20202;-65
2021/06/27 08:02:40;;;;;;;3.80;3.50;;;;;;;22.20;100.00;97480.25;5015988;28;20249;-64
2021/06/27 08:05:07;;;;;;;4.13;3.83;;;;;;;22.21;100.00;97479.44;5019831;28;20288;-65
2021/06/27 08:07:34;;;;;;;3.80;3.50;;;;;;;22.21;100.00;97486.25;5037397;28;20225;-63
2021/06/27 08:10:00;;;;;;;4.40;3.87;;;;;;;22.21;100.00;97484.56;5025287;28;20294;-65
2021/06/27 08:12:27;;;;;;;4.00;3.70;;;;;;;22.21;100.00;97482.00;5033231;28;20571;-65
2021/06/27 08:14:54;;;;;;;3.80;3.50;;;;;;;22.21;100.00;97473.47;5038962;28;20205;-64
2021/06/27 08:17:20;;;;;;;3.87;3.57;;;;;;;22.21;100.00;97482.00;5036383;28;20224;-64
2021/06/27 08:19:47;;;;;;;3.70;3.40;;;;;;;22.22;100.00;97472.63;5043123;28;20239;-67
2021/06/27 08:22:13;;;;;;;3.70;3.40;;;;;;;22.21;100.00;97465.78;5041199;28;20597;-65
2021/06/27 08:24:40;;;;;;;4.17;3.77;;;;;;;22.22;100.00;97472.63;5041390;28;20251;-64
2021/06/27 08:27:07;;;;;;;3.90;3.60;;;;;;;22.22;100.00;97467.50;5039171;28;20240;-64
2021/06/27 08:29:34;;;;;;;3.80;3.50;;;;;;;22.22;100.00;97470.06;5022480;28;20289;-64
2021/06/27 08:32:01;;;;;;;3.87;3.57;;;;;;;22.22;100.00;97476.06;5026494;28;20732;-65
2021/06/27 08:34:27;;;;;;;3.77;3.47;;;;;;;22.22;100.00;97476.06;5024599;28;20247;-63
2021/06/27 08:36:54;;;;;;;4.07;3.33;;;;;;;22.22;100.00;97470.06;5025452;28;20695;-64
2021/06/27 08:39:21;;;;;;;3.80;3.50;;;;;;;22.23;100.00;97469.25;5043024;28;20666;-63
2021/06/27 08:41:48;;;;;;;4.07;3.33;;;;;;;22.23;100.00;97467.53;5036739;28;20312;-63
2021/06/27 08:44:14;;;;;;;3.70;3.40;;;;;;;22.23;100.00;97464.97;5041553;28;20761;-63
2021/06/27 08:46:42;;;;;;;4.10;3.70;;;;;;;22.23;100.00;97471.81;5035968;28;20244;-64
2021/06/27 08:49:12;;;;;;;3.80;3.50;;;;;;;22.22;100.00;97460.69;5043841;28;20301;-65
2021/06/27 08:51:42;;;;;;;4.93;4.03;;;;;;;22.24;100.00;97468.41;5040167;28;20197;-65
2021/06/27 08:54:09;;;;;;;3.90;3.60;;;;;;;22.24;100.00;97464.16;5041389;28;20223;-63
2021/06/27 08:56:36;;;;;;;4.17;3.87;;;;;;;22.24;100.00;97455.63;4997054;28;20586;-65
2021/06/27 08:59:03;;;;;;;4.03;3.73;;;;;;;22.25;100.00;97454.78;5039142;28;20205;-64
2021/06/27 09:01:29;;;;;;;3.83;3.53;;;;;;;22.25;100.00;97463.34;5041635;28;20259;-64
2021/06/27 09:03:57;;;;;;;3.70;3.40;;;;;;;22.26;100.00;97470.19;5038405;28;20232;-62
2021/06/27 09:06:29;;;;;;;3.87;3.57;;;;;;;22.27;100.00;97458.25;5040357;28;20288;-64
2021/06/27 09:09:15;;;;;;;4.00;3.70;;;;;;;22.28;100.00;97462.53;5035538;28;20240;-64
2021/06/27 09:12:01;;;;;;;3.80;3.50;;;;;;;22.22;100.00;97452.13;5041883;28;20300;-61
2021/06/27 09:14:36;;;;;;;4.10;3.80;;;;;;;22.27;100.00;97458.25;5033607;28;20614;-64
2021/06/27 09:17:15;;;;;;;4.00;3.70;;;;;;;22.26;100.00;97459.94;5034787;28;20753;-65
2021/06/27 09:19:50;;;;;;;4.03;3.73;;;;;;;22.26;100.00;97459.09;5044431;28;20213;-64
2021/06/27 09:22:18;;;;;;;3.90;3.60;;;;;;;22.25;100.00;97455.66;5035441;28;20328;-65
2021/06/27 09:24:46;;;;;;;4.10;3.80;;;;;;;22.25;100.00;97459.91;5040266;28;20284;-64
2021/06/27 09:27:23;;;;;;;4.00;3.70;;;;;;;22.25;100.00;97462.44;5032014;28;20276;-64
2021/06/27 09:29:50;;;;;;;3.87;3.57;;;;;;;22.24;100.00;97451.38;5038971;28;20641;-65
2021/06/27 09:32:24;;;;;;;3.70;3.40;;;;;;;22.24;100.00;97461.63;5043994;28;20201;-64
2021/06/27 09:34:51;;;;;;;3.80;3.50;;;;;;;22.25;100.00;97457.34;5041555;28;20292;-65
2021/06/27 09:37:27;;;;;;;3.93;3.63;;;;;;;22.24;100.00;97459.06;5034144;28;20194;-65
2021/06/27 09:40:00;;;;;;;3.47;3.27;;;;;;;22.25;100.00;97449.66;5042520;28;20233;-64
2021/06/27 09:42:27;;;;;;;3.70;3.40;;;;;;;22.24;100.00;97453.94;5035703;28;20308;-62
2021/06/27 09:45:01;;;;;;;3.80;3.50;;;;;;;22.25;100.00;97444.53;5034170;28;20261;-64
2021/06/27 09:47:28;;;;;;;4.00;3.70;;;;;;;22.26;100.00;97448.84;5035354;28;20292;-64
2021/06/27 09:49:54;;;;;;;3.90;3.60;;;;;;;22.25;100.00;97436.84;5040154;28;20263;-65
2021/06/27 09:52:37;;;;;;;3.70;3.40;;;;;;;22.24;100.00;97441.13;5038815;28;20197;-63
2021/06/27 09:55:08;;;;;;;4.00;3.70;;;;;;;22.24;100.00;97448.81;5038515;28;20308;-62
2021/06/27 09:57:35;;;;;;;3.60;3.40;;;;;;;22.24;100.00;97445.38;5022263;28;20229;-62
2021/06/27 10:00:04;;;;;;;3.83;3.57;;;;;;;22.23;100.00;97441.94;5033600;28;20229;-64
2021/06/27 10:02:31;;;;;;;4.10;3.80;;;;;;;22.23;100.00;97444.50;5030648;28;20244;-64
2021/06/27 10:04:58;;;;;;;3.40;3.20;;;;;;;22.23;100.00;97443.66;5024182;28;20288;-63
2021/06/27 10:07:37;;;;;;;4.00;3.70;;;;;;;22.22;100.00;97447.91;5042353;28;20288;-62
2021/06/27 10:10:16;;;;;;;3.43;3.23;;;;;;;22.23;100.00;97448.78;5029750;28;20288;-63
2021/06/27 10:12:42;;;;;;;3.70;3.40;;;;;;;22.23;100.00;97433.41;5045084;28;20252;-65
2021/06/27 10:15:09;;;;;;;3.90;3.60;;;;;;;22.23;100.00;97433.41;5036077;28;20201;-64
2021/06/27 10:17:36;;;;;;;3.50;3.30;;;;;;;22.23;100.00;97429.13;5040308;28;20292;-65
2021/06/27 10:20:03;;;;;;;3.80;3.50;;;;;;;22.23;100.00;97421.47;5037994;28;20297;-64
2021/06/27 10:22:31;;;;;;;3.80;3.50;;;;;;;22.23;100.00;97421.47;5039609;28;20312;-63
2021/06/27 10:24:58;;;;;;;3.77;3.47;;;;;;;22.24;100.00;97423.22;5038049;28;20229;-64
2021/06/27 10:27:25;;;;;;;4.33;3.50;;;;;;;22.24;100.00;97423.22;5038207;28;20670;-64
2021/06/27 10:29:51;;;;;;;4.10;3.80;;;;;;;22.25;100.00;97417.25;5040622;28;20615;-63
2021/06/27 10:32:20;;;;;;;4.53;3.50;;;;;;;22.25;100.00;97422.38;5037954;28;20276;-63
2021/06/27 10:34:47;;;;;;;3.67;3.40;;;;;;;22.07;100.00;97390.31;5037051;28;20623;-64
2021/06/27 10:37:18;;;;;;;4.37;3.40;;;;;;;22.01;100.00;97379.94;5036136;28;20235;-65
2021/06/27 10:40:01;;;;;;;3.63;3.33;;;;;;;22.25;100.00;97418.94;5042187;28;20201;-65
2021/06/27 10:42:49;;;;;;;3.67;3.37;;;;;;;22.24;100.00;97425.78;5039225;28;20296;-64
2021/06/27 10:45:34;;;;;;;3.70;3.40;;;;;;;22.24;100.00;97427.44;5035275;28;20686;-64
2021/06/27 10:48:05;;;;;;;3.80;3.50;;;;;;;22.24;100.00;97424.91;5038439;28;20682;-65
2021/06/27 10:50:53;;;;;;;4.10;3.70;;;;;;;22.23;100.00;97421.47;5028730;28;20244;-63
2021/06/27 10:53:19;;;;;;;3.40;3.20;;;;;;;22.24;100.00;97419.78;5041004;28;20208;-64
2021/06/27 10:55:46;;;;;;;3.20;3.00;;;;;;;22.24;100.00;97417.22;5037222;28;20652;-63
2021/06/27 10:58:16;;;;;;;4.20;3.80;;;;;;;22.24;100.00;97423.22;5041539;28;20244;-65
2021/06/27 11:00:55;;;;;;;3.80;3.50;;;;;;;22.24;100.00;97420.66;5029404;28;20225;-65
2021/06/27 11:03:42;;;;;;;3.50;3.20;;;;;;;22.25;100.00;97424.06;5027384;28;20228;-65
2021/06/27 11:06:14;;;;;;;3.90;3.60;;;;;;;22.23;100.00;97416.34;5017995;28;20233;-65
2021/06/27 11:08:42;;;;;;;3.70;3.40;;;;;;;22.24;100.00;97425.78;5029986;28;20220;-65
2021/06/27 11:11:19;;;;;;;3.33;3.13;;;;;;;22.25;100.00;97417.25;5032030;28;20240;-65
2021/06/27 11:14:11;;;;;;;3.90;3.50;;;;;;;21.22;100.00;97234.66;5039058;28;20654;-65
2021/06/27 11:17:05;;;;;;;3.50;3.30;;;;;;;22.25;100.00;97409.56;5036019;28;20225;-65
2021/06/27 11:19:33;;;;;;;3.80;3.50;;;;;;;22.23;100.00;97408.66;5021409;28;20202;-65
2021/06/27 11:22:21;;;;;;;3.90;3.60;;;;;;;22.24;100.00;97399.28;5037608;28;20225;-65
2021/06/27 11:24:50;;;;;;;3.77;3.50;;;;;;;21.95;100.00;97352.50;5033693;28;20243;-62
2021/06/27 11:27:35;;;;;;;3.97;3.67;;;;;;;22.24;100.00;97396.72;5042178;28;20224;-65
2021/06/27 11:30:30;;;;;;;3.70;3.40;;;;;;;21.45;100.00;97261.69;5035764;28;20240;-65
2021/06/27 11:33:18;;;;;;;3.93;3.63;;;;;;;22.24;100.00;97396.72;5040826;28;20216;-63